createdAt,value
2022-11-07T00:00:49.911Z,816.67
2022-11-07T00:01:46.088Z,816.63
2022-11-07T00:02:46.130Z,816.68
2022-11-07T00:03:46.064Z,816.70
2022-11-07T00:04:46.072Z,816.75
2022-11-07T00:05:46.081Z,816.72
2022-11-07T00:06:46.091Z,816.72
2022-11-07T00:07:46.101Z,816.74
2022-11-07T00:08:46.112Z,816.72
2022-11-07T00:09:46.131Z,816.76
2022-11-07T00:10:46.129Z,816.79
2022-11-07T00:11:46.142Z,816.75
2022-11-07T00:12:46.450Z,816.78
2022-11-07T00:13:46.158Z,816.79
2022-11-07T00:14:46.170Z,816.76
2022-11-07T00:15:46.178Z,816.76
2022-11-07T00:16:46.181Z,816.78
2022-11-07T00:17:46.192Z,816.74
2022-11-07T00:18:46.201Z,816.80
2022-11-07T00:19:46.210Z,816.82
2022-11-07T00:20:46.223Z,816.84
2022-11-07T00:21:46.231Z,816.81
2022-11-07T00:22:46.238Z,816.82
2022-11-07T00:23:46.247Z,816.81
2022-11-07T00:24:46.255Z,816.88
2022-11-07T00:25:46.264Z,816.88
2022-11-07T00:26:46.274Z,816.93
2022-11-07T00:27:46.286Z,816.89
2022-11-07T00:28:46.309Z,816.88
2022-11-07T00:29:46.300Z,816.85
2022-11-07T00:30:46.305Z,816.92
2022-11-07T00:31:46.317Z,816.92
2022-11-07T00:32:46.325Z,816.97
2022-11-07T00:33:46.344Z,816.96
2022-11-07T00:34:46.343Z,816.99
2022-11-07T00:35:46.354Z,816.97
2022-11-07T00:36:46.358Z,817.00
2022-11-07T00:37:46.369Z,816.94
2022-11-07T00:38:46.378Z,816.96
2022-11-07T00:39:46.391Z,817.00
2022-11-07T00:40:46.396Z,817.02
2022-11-07T00:41:46.405Z,817.05
2022-11-07T00:42:46.413Z,817.02
2022-11-07T00:43:46.424Z,817.04
2022-11-07T00:44:46.452Z,817.06
2022-11-07T00:45:46.440Z,817.05
2022-11-07T00:46:46.455Z,817.06
2022-11-07T00:47:46.458Z,817.01
2022-11-07T00:48:46.465Z,817.00
2022-11-07T00:49:46.493Z,817.00
2022-11-07T00:50:46.486Z,817.00
2022-11-07T00:51:46.493Z,817.00
2022-11-07T00:52:46.498Z,817.01
2022-11-07T00:53:46.510Z,817.00
2022-11-07T00:54:46.518Z,817.03
2022-11-07T00:55:46.532Z,817.03
2022-11-07T00:56:46.537Z,817.05
2022-11-07T00:57:46.546Z,817.05
2022-11-07T00:58:46.562Z,817.08
2022-11-07T00:59:46.589Z,817.07
2022-11-07T01:00:46.591Z,817.02
2022-11-07T01:01:46.659Z,816.97
2022-11-07T01:02:46.804Z,817.02
2022-11-07T01:03:46.600Z,817.02
2022-11-07T01:04:46.617Z,816.99
2022-11-07T01:05:46.619Z,817.02
2022-11-07T01:06:46.629Z,817.06
2022-11-07T01:07:46.635Z,817.05
2022-11-07T01:08:46.641Z,816.99
2022-11-07T01:09:46.654Z,817.02
2022-11-07T01:10:46.667Z,817.00
2022-11-07T01:11:46.672Z,817.00
2022-11-07T01:12:46.682Z,816.99
2022-11-07T01:13:46.689Z,816.97
2022-11-07T01:14:46.696Z,816.94
2022-11-07T01:15:46.708Z,816.94
2022-11-07T01:16:46.730Z,816.96
2022-11-07T01:17:46.725Z,816.95
2022-11-07T01:18:46.733Z,816.95
2022-11-07T01:19:46.750Z,816.93
2022-11-07T01:20:46.814Z,816.92
2022-11-07T01:21:46.758Z,816.92
2022-11-07T01:22:46.765Z,816.92
2022-11-07T01:23:46.774Z,816.92
2022-11-07T01:24:46.783Z,816.96
2022-11-07T01:25:46.797Z,816.93
2022-11-07T01:26:46.800Z,816.95
2022-11-07T01:27:46.813Z,816.98
2022-11-07T01:28:46.817Z,816.98
2022-11-07T01:29:46.828Z,817.00
2022-11-07T01:30:46.837Z,817.01
2022-11-07T01:31:46.846Z,817.05
2022-11-07T01:32:46.987Z,817.06
2022-11-07T01:33:46.870Z,817.04
2022-11-07T01:34:46.870Z,817.01
2022-11-07T01:35:46.883Z,816.98
2022-11-07T01:36:46.890Z,817.01
2022-11-07T01:37:46.898Z,817.00
2022-11-07T01:38:46.912Z,816.99
2022-11-07T01:39:46.918Z,816.99
2022-11-07T01:40:46.934Z,816.98
2022-11-07T01:41:46.936Z,817.01
2022-11-07T01:42:46.943Z,816.98
2022-11-07T01:43:46.953Z,817.00
2022-11-07T01:44:46.962Z,816.97
2022-11-07T01:45:46.972Z,816.98
2022-11-07T01:46:46.979Z,817.02
2022-11-07T01:47:46.987Z,817.00
2022-11-07T01:48:47.114Z,816.94
2022-11-07T01:49:47.021Z,816.89
2022-11-07T01:50:47.013Z,816.89
2022-11-07T01:51:47.026Z,816.84
2022-11-07T01:52:47.034Z,816.87
2022-11-07T01:53:47.048Z,816.84
2022-11-07T01:54:47.099Z,816.92
2022-11-07T01:55:47.064Z,816.90
2022-11-07T01:56:47.068Z,816.86
2022-11-07T01:57:47.077Z,816.91
2022-11-07T01:58:47.095Z,816.91
2022-11-07T01:59:47.096Z,816.92
2022-11-07T02:00:47.109Z,816.90
2022-11-07T02:01:47.241Z,816.89
2022-11-07T02:02:47.229Z,816.92
2022-11-07T02:03:47.134Z,816.90
2022-11-07T02:04:47.159Z,816.91
2022-11-07T02:05:47.151Z,816.90
2022-11-07T02:06:47.166Z,816.89
2022-11-07T02:07:47.168Z,816.91
2022-11-07T02:08:47.174Z,816.90
2022-11-07T02:09:47.186Z,816.91
2022-11-07T02:10:47.193Z,816.89
2022-11-07T02:11:47.203Z,816.85
2022-11-07T02:12:47.210Z,816.83
2022-11-07T02:13:47.219Z,816.83
2022-11-07T02:14:47.231Z,816.86
2022-11-07T02:15:47.240Z,816.80
2022-11-07T02:16:47.250Z,816.89
2022-11-07T02:17:47.257Z,816.85
2022-11-07T02:18:47.268Z,816.86
2022-11-07T02:19:47.293Z,816.86
2022-11-07T02:20:47.299Z,816.84
2022-11-07T02:21:47.292Z,816.84
2022-11-07T02:22:47.299Z,816.84
2022-11-07T02:23:47.311Z,816.84
2022-11-07T02:24:47.316Z,816.82
2022-11-07T02:25:47.329Z,816.82
2022-11-07T02:26:47.332Z,816.83
2022-11-07T02:27:47.344Z,816.81
2022-11-07T02:28:47.351Z,816.77
2022-11-07T02:29:47.362Z,816.78
2022-11-07T02:30:47.372Z,816.73
2022-11-07T02:31:47.381Z,816.77
2022-11-07T02:32:47.386Z,816.78
2022-11-07T02:33:47.402Z,816.80
2022-11-07T02:34:47.404Z,816.80
2022-11-07T02:35:47.418Z,816.80
2022-11-07T02:36:47.441Z,816.79
2022-11-07T02:37:47.433Z,816.80
2022-11-07T02:38:47.442Z,816.81
2022-11-07T02:39:47.464Z,816.79
2022-11-07T02:40:47.458Z,816.74
2022-11-07T02:41:47.467Z,816.77
2022-11-07T02:42:47.478Z,816.76
2022-11-07T02:43:47.487Z,816.77
2022-11-07T02:44:47.499Z,816.76
2022-11-07T02:45:47.504Z,816.73
2022-11-07T02:46:47.513Z,816.74
2022-11-07T02:47:47.522Z,816.77
2022-11-07T02:48:47.630Z,816.74
2022-11-07T02:49:47.540Z,816.75
2022-11-07T02:50:47.547Z,816.76
2022-11-07T02:51:47.558Z,816.78
2022-11-07T02:52:47.687Z,816.80
2022-11-07T02:53:47.591Z,816.81
2022-11-07T02:54:47.595Z,816.86
2022-11-07T02:55:47.596Z,816.84
2022-11-07T02:56:47.602Z,816.81
2022-11-07T02:57:47.610Z,816.79
2022-11-07T02:58:47.632Z,816.77
2022-11-07T02:59:47.632Z,816.77
2022-11-07T03:00:47.637Z,816.78
2022-11-07T03:01:47.755Z,816.77
2022-11-07T03:02:47.833Z,816.79
2022-11-07T03:03:47.664Z,816.74
2022-11-07T03:04:49.233Z,816.69
2022-11-07T03:05:47.681Z,816.73
2022-11-07T03:06:47.689Z,816.69
2022-11-07T03:07:47.701Z,816.70
2022-11-07T03:08:47.728Z,816.69
2022-11-07T03:09:47.721Z,816.69
2022-11-07T03:10:47.724Z,816.69
2022-11-07T03:11:47.735Z,816.64
2022-11-07T03:12:47.741Z,816.67
2022-11-07T03:13:47.760Z,816.65
2022-11-07T03:14:47.787Z,816.66
2022-11-07T03:15:47.771Z,816.64
2022-11-07T03:16:47.777Z,816.60
2022-11-07T03:17:47.788Z,816.59
2022-11-07T03:18:47.794Z,816.59
2022-11-07T03:19:47.819Z,816.61
2022-11-07T03:20:47.825Z,816.57
2022-11-07T03:21:47.824Z,816.60
2022-11-07T03:22:47.831Z,816.61
2022-11-07T03:23:47.842Z,816.61
2022-11-07T03:24:47.867Z,816.62
2022-11-07T03:25:47.855Z,816.65
2022-11-07T03:26:47.866Z,816.68
2022-11-07T03:27:47.878Z,816.67
2022-11-07T03:28:47.882Z,816.62
2022-11-07T03:29:47.907Z,816.59
2022-11-07T03:30:47.904Z,816.63
2022-11-07T03:31:47.914Z,816.67
2022-11-07T03:32:47.922Z,816.65
2022-11-07T03:33:47.928Z,816.66
2022-11-07T03:34:47.935Z,816.64
2022-11-07T03:35:47.943Z,816.65
2022-11-07T03:36:47.953Z,816.65
2022-11-07T03:37:47.961Z,816.70
2022-11-07T03:38:47.971Z,816.67
2022-11-07T03:39:47.982Z,816.71
2022-11-07T03:40:48.008Z,816.66
2022-11-07T03:41:47.994Z,816.63
2022-11-07T03:42:48.007Z,816.61
2022-11-07T03:43:48.012Z,816.57
2022-11-07T03:44:48.023Z,816.60
2022-11-07T03:45:48.034Z,816.63
2022-11-07T03:46:48.044Z,816.58
2022-11-07T03:47:48.055Z,816.64
2022-11-07T03:48:48.058Z,816.61
2022-11-07T03:49:48.065Z,816.61
2022-11-07T03:50:48.076Z,816.66
2022-11-07T03:51:48.085Z,816.68
2022-11-07T03:52:48.089Z,816.70
2022-11-07T03:53:48.098Z,816.71
2022-11-07T03:54:48.110Z,816.67
2022-11-07T03:55:48.117Z,816.68
2022-11-07T03:56:48.201Z,816.70
2022-11-07T03:57:48.134Z,816.70
2022-11-07T03:58:48.148Z,816.69
2022-11-07T03:59:48.152Z,816.72
2022-11-07T04:00:48.162Z,816.73
2022-11-07T04:01:48.317Z,816.75
2022-11-07T04:02:48.285Z,816.77
2022-11-07T04:03:48.837Z,816.78
2022-11-07T04:04:48.192Z,816.78
2022-11-07T04:05:48.204Z,816.78
2022-11-07T04:06:48.212Z,816.77
2022-11-07T04:07:48.225Z,816.76
2022-11-07T04:08:48.239Z,816.80
2022-11-07T04:09:48.300Z,816.80
2022-11-07T04:10:48.245Z,816.82
2022-11-07T04:11:48.253Z,816.83
2022-11-07T04:12:48.287Z,816.84
2022-11-07T04:13:48.269Z,816.84
2022-11-07T04:14:48.281Z,816.86
2022-11-07T04:15:48.288Z,816.82
2022-11-07T04:16:48.295Z,816.85
2022-11-07T04:17:48.307Z,816.82
2022-11-07T04:18:48.326Z,816.78
2022-11-07T04:19:48.325Z,816.81
2022-11-07T04:20:48.331Z,816.80
2022-11-07T04:21:48.337Z,816.82
2022-11-07T04:22:48.350Z,816.84
2022-11-07T04:23:48.353Z,816.82
2022-11-07T04:24:48.367Z,816.85
2022-11-07T04:25:48.372Z,816.86
2022-11-07T04:26:48.383Z,816.90
2022-11-07T04:27:48.391Z,816.94
2022-11-07T04:28:48.500Z,816.89
2022-11-07T04:29:48.406Z,816.84
2022-11-07T04:30:48.413Z,816.86
2022-11-07T04:31:48.423Z,816.86
2022-11-07T04:32:48.431Z,816.85
2022-11-07T04:33:48.440Z,816.84
2022-11-07T04:34:48.445Z,816.86
2022-11-07T04:35:48.455Z,816.84
2022-11-07T04:36:48.484Z,816.80
2022-11-07T04:37:48.473Z,816.88
2022-11-07T04:38:48.483Z,816.83
2022-11-07T04:39:48.487Z,816.87
2022-11-07T04:40:48.498Z,816.86
2022-11-07T04:41:48.502Z,816.96
2022-11-07T04:42:48.526Z,816.95
2022-11-07T04:43:48.625Z,816.90
2022-11-07T04:44:48.551Z,816.98
2022-11-07T04:45:48.538Z,816.96
2022-11-07T04:46:48.551Z,817.00
2022-11-07T04:47:48.565Z,817.01
2022-11-07T04:48:48.612Z,817.01
2022-11-07T04:49:48.570Z,816.97
2022-11-07T04:50:48.587Z,817.02
2022-11-07T04:51:48.596Z,817.05
2022-11-07T04:52:48.631Z,817.04
2022-11-07T04:53:48.604Z,817.05
2022-11-07T04:54:48.613Z,817.09
2022-11-07T04:55:48.631Z,817.07
2022-11-07T04:56:48.642Z,817.09
2022-11-07T04:57:48.646Z,817.11
2022-11-07T04:58:48.646Z,817.11
2022-11-07T04:59:48.652Z,817.11
2022-11-07T05:00:48.678Z,817.12
2022-11-07T05:01:48.845Z,817.08
2022-11-07T05:02:48.767Z,817.08
2022-11-07T05:03:48.687Z,817.09
2022-11-07T05:04:48.695Z,817.07
2022-11-07T05:05:48.699Z,817.08
2022-11-07T05:06:48.710Z,817.08
2022-11-07T05:07:48.717Z,817.05
2022-11-07T05:08:48.727Z,817.03
2022-11-07T05:09:48.735Z,817.06
2022-11-07T05:10:48.741Z,817.02
2022-11-07T05:11:48.750Z,817.02
2022-11-07T05:12:48.761Z,817.02
2022-11-07T05:13:48.768Z,817.03
2022-11-07T05:14:48.778Z,817.03
2022-11-07T05:15:48.781Z,817.04
2022-11-07T05:16:48.862Z,817.04
2022-11-07T05:17:48.800Z,817.05
2022-11-07T05:18:48.807Z,817.08
2022-11-07T05:19:48.817Z,817.11
2022-11-07T05:20:48.828Z,817.10
2022-11-07T05:21:49.846Z,817.12
2022-11-07T05:22:52.347Z,817.08
2022-11-07T05:23:48.850Z,817.09
2022-11-07T05:24:48.857Z,817.04
2022-11-07T05:25:48.868Z,817.03
2022-11-07T05:26:48.877Z,817.02
2022-11-07T05:27:48.884Z,817.05
2022-11-07T05:28:48.904Z,817.00
2022-11-07T05:29:48.899Z,817.06
2022-11-07T05:30:48.919Z,817.07
2022-11-07T05:31:48.921Z,817.04
2022-11-07T05:32:49.049Z,817.06
2022-11-07T05:33:48.934Z,817.03
2022-11-07T05:34:48.941Z,817.06
2022-11-07T05:35:48.951Z,817.05
2022-11-07T05:36:48.960Z,817.08
2022-11-07T05:37:48.973Z,817.08
2022-11-07T05:38:48.977Z,817.09
2022-11-07T05:39:53.962Z,817.07
2022-11-07T05:40:48.991Z,817.08
2022-11-07T05:41:48.998Z,817.08
2022-11-07T05:42:49.016Z,817.06
2022-11-07T05:43:49.015Z,817.04
2022-11-07T05:44:49.026Z,817.06
2022-11-07T05:45:49.033Z,817.04
2022-11-07T05:46:49.041Z,817.09
2022-11-07T05:47:49.049Z,817.09
2022-11-07T05:48:49.078Z,817.08
2022-11-07T05:49:49.067Z,817.11
2022-11-07T05:50:49.089Z,817.13
2022-11-07T05:51:49.083Z,817.07
2022-11-07T05:52:49.172Z,817.08
2022-11-07T05:53:49.099Z,817.11
2022-11-07T05:54:49.109Z,817.10
2022-11-07T05:55:49.115Z,817.06
2022-11-07T05:56:49.126Z,817.04
2022-11-07T05:57:49.131Z,817.05
2022-11-07T05:58:49.140Z,816.99
2022-11-07T05:59:49.156Z,817.00
2022-11-07T06:00:49.179Z,817.04
2022-11-07T06:01:51.278Z,816.98
2022-11-07T06:02:49.289Z,816.98
2022-11-07T06:03:49.181Z,816.96
2022-11-07T06:04:49.211Z,816.95
2022-11-07T06:05:49.196Z,816.97
2022-11-07T06:06:49.208Z,816.96
2022-11-07T06:07:49.213Z,816.95
2022-11-07T06:08:49.224Z,816.96
2022-11-07T06:09:49.233Z,816.95
2022-11-07T06:10:49.240Z,816.98
2022-11-07T06:11:49.248Z,816.99
2022-11-07T06:12:53.856Z,816.99
2022-11-07T06:13:49.266Z,817.03
2022-11-07T06:14:49.275Z,817.02
2022-11-07T06:15:49.280Z,817.03
2022-11-07T06:16:49.292Z,816.99
2022-11-07T06:17:49.297Z,817.06
2022-11-07T06:18:49.306Z,817.04
2022-11-07T06:19:49.312Z,817.01
2022-11-07T06:20:49.347Z,817.00
2022-11-07T06:21:49.331Z,817.00
2022-11-07T06:22:49.340Z,816.98
2022-11-07T06:23:49.345Z,817.00
2022-11-07T06:24:49.354Z,816.94
2022-11-07T06:25:49.362Z,817.00
2022-11-07T06:26:49.371Z,817.00
2022-11-07T06:27:49.378Z,817.00
2022-11-07T06:28:49.388Z,817.02
2022-11-07T06:29:49.395Z,817.00
2022-11-07T06:30:49.406Z,817.06
2022-11-07T06:31:49.411Z,817.05
2022-11-07T06:32:49.421Z,817.06
2022-11-07T06:33:49.427Z,817.08
2022-11-07T06:34:49.435Z,817.07
2022-11-07T06:35:49.445Z,817.08
2022-11-07T06:36:58.623Z,817.07
2022-11-07T06:37:49.492Z,817.09
2022-11-07T06:38:49.472Z,817.09
2022-11-07T06:39:49.478Z,817.09
2022-11-07T06:40:49.485Z,817.08
2022-11-07T06:41:49.492Z,817.13
2022-11-07T06:42:49.504Z,817.13
2022-11-07T06:43:49.507Z,817.11
2022-11-07T06:44:49.519Z,817.15
2022-11-07T06:45:49.528Z,817.13
2022-11-07T06:46:49.536Z,817.16
2022-11-07T06:47:49.543Z,817.12
2022-11-07T06:48:49.550Z,817.13
2022-11-07T06:49:49.561Z,817.21
2022-11-07T06:50:49.571Z,817.20
2022-11-07T06:51:49.575Z,817.17
2022-11-07T06:52:49.603Z,817.20
2022-11-07T06:53:49.593Z,817.19
2022-11-07T06:54:49.600Z,817.17
2022-11-07T06:55:49.610Z,817.18
2022-11-07T06:56:49.619Z,817.18
2022-11-07T06:57:49.623Z,817.19
2022-11-07T06:58:49.644Z,817.20
2022-11-07T06:59:51.834Z,817.22
2022-11-07T07:00:49.737Z,817.19
2022-11-07T07:01:49.748Z,817.22
2022-11-07T07:02:58.396Z,817.22
2022-11-07T07:03:49.685Z,817.26
2022-11-07T07:04:49.680Z,817.23
2022-11-07T07:05:49.688Z,817.27
2022-11-07T07:06:49.698Z,817.28
2022-11-07T07:07:49.804Z,817.28
2022-11-07T07:08:49.754Z,817.32
2022-11-07T07:09:49.724Z,817.34
2022-11-07T07:10:49.734Z,817.35
2022-11-07T07:11:49.745Z,817.35
2022-11-07T07:12:49.847Z,817.38
2022-11-07T07:13:49.756Z,817.38
2022-11-07T07:14:49.763Z,817.41
2022-11-07T07:15:51.424Z,817.45
2022-11-07T07:16:49.781Z,817.43
2022-11-07T07:17:49.786Z,817.42
2022-11-07T07:18:49.810Z,817.42
2022-11-07T07:19:49.806Z,817.42
2022-11-07T07:20:49.835Z,817.44
2022-11-07T07:21:49.822Z,817.41
2022-11-07T07:22:56.066Z,817.41
2022-11-07T07:23:49.838Z,817.43
2022-11-07T07:24:49.957Z,817.41
2022-11-07T07:25:49.853Z,817.41
2022-11-07T07:26:49.865Z,817.43
2022-11-07T07:27:49.872Z,817.43
2022-11-07T07:28:49.880Z,817.39
2022-11-07T07:29:49.887Z,817.43
2022-11-07T07:30:52.146Z,817.46
2022-11-07T07:31:49.905Z,817.45
2022-11-07T07:32:49.918Z,817.46
2022-11-07T07:33:49.922Z,817.40
2022-11-07T07:34:49.930Z,817.42
2022-11-07T07:35:49.966Z,817.45
2022-11-07T07:36:49.944Z,817.48
2022-11-07T07:37:49.956Z,817.48
2022-11-07T07:38:49.963Z,817.48
2022-11-07T07:39:49.976Z,817.48
2022-11-07T07:40:50.094Z,817.57
2022-11-07T07:41:49.993Z,817.56
2022-11-07T07:42:50.000Z,817.51
2022-11-07T07:43:50.011Z,817.54
2022-11-07T07:44:50.025Z,817.56
2022-11-07T07:45:50.028Z,817.55
2022-11-07T07:46:50.035Z,817.57
2022-11-07T07:47:50.039Z,817.61
2022-11-07T07:48:50.046Z,817.66
2022-11-07T07:49:50.059Z,817.58
2022-11-07T07:50:50.065Z,817.60
2022-11-07T07:51:50.078Z,817.59
2022-11-07T07:52:50.080Z,817.63
2022-11-07T07:53:50.092Z,817.60
2022-11-07T07:54:50.096Z,817.61
2022-11-07T07:55:50.111Z,817.58
2022-11-07T07:56:50.241Z,817.56
2022-11-07T07:57:50.124Z,817.54
2022-11-07T07:58:50.131Z,817.56
2022-11-07T07:59:50.142Z,817.55
2022-11-07T08:00:50.201Z,817.57
2022-11-07T08:01:56.273Z,817.54
2022-11-07T08:02:50.167Z,817.54
2022-11-07T08:04:01.403Z,817.53
2022-11-07T08:04:50.183Z,817.60
2022-11-07T08:05:50.194Z,817.59
2022-11-07T08:06:50.200Z,817.61
2022-11-07T08:07:50.214Z,817.59
2022-11-07T08:08:50.220Z,817.59
2022-11-07T08:09:50.227Z,817.60
2022-11-07T08:10:50.234Z,817.66
2022-11-07T08:11:50.266Z,817.66
2022-11-07T08:12:50.364Z,817.63
2022-11-07T08:13:50.263Z,817.62
2022-11-07T08:14:50.269Z,817.62
2022-11-07T08:15:50.283Z,817.65
2022-11-07T08:16:50.287Z,817.68
2022-11-07T08:17:50.310Z,817.72
2022-11-07T08:18:50.308Z,817.69
2022-11-07T08:19:50.316Z,817.72
2022-11-07T08:20:50.324Z,817.70
2022-11-07T08:21:50.334Z,817.70
2022-11-07T08:22:50.358Z,817.71
2022-11-07T08:23:50.354Z,817.75
2022-11-07T08:24:50.360Z,817.74
2022-11-07T08:25:50.370Z,817.74
2022-11-07T08:26:50.381Z,817.73
2022-11-07T08:27:50.393Z,817.69
2022-11-07T08:28:50.510Z,817.69
2022-11-07T08:29:50.409Z,817.67
2022-11-07T08:30:50.418Z,817.69
2022-11-07T08:31:50.436Z,817.72
2022-11-07T08:32:50.437Z,817.77
2022-11-07T08:33:50.520Z,817.69
2022-11-07T08:34:50.453Z,817.73
2022-11-07T08:35:50.468Z,817.73
2022-11-07T08:36:50.482Z,817.77
2022-11-07T08:37:50.494Z,817.77
2022-11-07T08:38:50.493Z,817.74
2022-11-07T08:39:50.507Z,817.78
2022-11-07T08:40:50.511Z,817.75
2022-11-07T08:41:50.522Z,817.78
2022-11-07T08:42:50.531Z,817.79
2022-11-07T08:43:50.543Z,817.76
2022-11-07T08:44:50.658Z,817.76
2022-11-07T08:45:50.564Z,817.77
2022-11-07T08:46:50.570Z,817.73
2022-11-07T08:47:50.581Z,817.73
2022-11-07T08:48:50.586Z,817.73
2022-11-07T08:49:50.598Z,817.73
2022-11-07T08:50:50.609Z,817.75
2022-11-07T08:51:50.618Z,817.74
2022-11-07T08:52:50.630Z,817.73
2022-11-07T08:53:50.648Z,817.77
2022-11-07T08:54:50.652Z,817.75
2022-11-07T08:55:50.660Z,817.74
2022-11-07T08:56:50.666Z,817.73
2022-11-07T08:57:50.679Z,817.74
2022-11-07T08:58:50.686Z,817.69
2022-11-07T08:59:50.698Z,817.74
2022-11-07T09:00:50.796Z,817.66
2022-11-07T09:02:28.106Z,817.70
2022-11-07T09:03:24.221Z,817.69
2022-11-07T09:03:57.651Z,817.73
2022-11-07T09:04:50.863Z,817.79
2022-11-07T09:05:50.758Z,817.76
2022-11-07T09:06:50.766Z,817.76
2022-11-07T09:07:50.779Z,817.77
2022-11-07T09:08:50.785Z,817.70
2022-11-07T09:09:50.796Z,817.77
2022-11-07T09:10:50.807Z,817.73
2022-11-07T09:11:50.822Z,817.77
2022-11-07T09:12:50.832Z,817.74
2022-11-07T09:13:50.842Z,817.73
2022-11-07T09:14:50.855Z,817.75
2022-11-07T09:15:51.977Z,817.71
2022-11-07T09:16:50.886Z,817.75
2022-11-07T09:17:50.894Z,817.77
2022-11-07T09:18:50.893Z,817.73
2022-11-07T09:19:50.902Z,817.81
2022-11-07T09:20:50.910Z,817.80
2022-11-07T09:21:50.971Z,817.78
2022-11-07T09:22:50.932Z,817.83
2022-11-07T09:23:50.949Z,817.80
2022-11-07T09:24:50.954Z,817.80
2022-11-07T09:25:50.964Z,817.81
2022-11-07T09:26:50.971Z,817.80
2022-11-07T09:27:50.997Z,817.80
2022-11-07T09:28:53.111Z,817.82
2022-11-07T09:29:51.006Z,817.83
2022-11-07T09:30:51.031Z,817.84
2022-11-07T09:31:51.029Z,817.81
2022-11-07T09:32:51.050Z,817.80
2022-11-07T09:33:51.048Z,817.81
2022-11-07T09:34:57.216Z,817.84
2022-11-07T09:35:51.073Z,817.84
2022-11-07T09:36:51.081Z,817.84
2022-11-07T09:37:51.090Z,817.87
2022-11-07T09:38:51.103Z,817.85
2022-11-07T09:39:51.118Z,817.87
2022-11-07T09:40:51.132Z,817.90
2022-11-07T09:41:51.140Z,817.89
2022-11-07T09:42:51.147Z,817.95
2022-11-07T09:43:51.165Z,817.93
2022-11-07T09:44:51.182Z,817.93
2022-11-07T09:45:51.186Z,817.93
2022-11-07T09:46:51.192Z,817.91
2022-11-07T09:47:51.213Z,817.88
2022-11-07T09:48:51.234Z,817.90
2022-11-07T09:49:51.229Z,817.93
2022-11-07T09:50:51.243Z,817.97
2022-11-07T09:51:51.254Z,817.98
2022-11-07T09:52:51.261Z,817.98
2022-11-07T09:53:51.284Z,817.98
2022-11-07T09:54:51.290Z,817.95
2022-11-07T09:55:51.300Z,817.95
2022-11-07T09:56:51.320Z,818.00
2022-11-07T09:57:51.323Z,818.01
2022-11-07T09:58:51.333Z,818.00
2022-11-07T09:59:51.348Z,818.00
2022-11-07T10:00:51.406Z,817.98
2022-11-07T10:01:51.540Z,817.97
2022-11-07T10:02:51.383Z,818.02
2022-11-07T10:04:23.704Z,818.05
2022-11-07T10:04:51.424Z,818.01
2022-11-07T10:05:51.421Z,818.01
2022-11-07T10:06:51.433Z,818.02
2022-11-07T10:07:51.457Z,818.01
2022-11-07T10:08:51.456Z,818.02
2022-11-07T10:09:51.470Z,818.05
2022-11-07T10:10:51.484Z,818.01
2022-11-07T10:11:51.497Z,818.01
2022-11-07T10:12:51.512Z,818.07
2022-11-07T10:13:51.520Z,818.04
2022-11-07T10:14:51.539Z,817.98
2022-11-07T10:15:51.547Z,818.01
2022-11-07T10:16:51.556Z,817.93
2022-11-07T10:17:53.836Z,817.92
2022-11-07T10:18:51.584Z,817.97
2022-11-07T10:19:51.598Z,817.91
2022-11-07T10:21:05.451Z,817.91
2022-11-07T10:21:51.628Z,817.91
2022-11-07T10:22:51.636Z,817.85
2022-11-07T10:23:51.650Z,817.87
2022-11-07T10:24:51.663Z,817.89
2022-11-07T10:25:51.678Z,817.86
2022-11-07T10:26:51.691Z,817.89
2022-11-07T10:27:51.705Z,817.91
2022-11-07T10:28:51.770Z,817.87
2022-11-07T10:29:51.729Z,817.86
2022-11-07T10:30:51.758Z,817.86
2022-11-07T10:31:51.757Z,817.82
2022-11-07T10:32:51.769Z,817.87
2022-11-07T10:33:51.789Z,817.86
2022-11-07T10:34:54.568Z,817.85
2022-11-07T10:35:51.824Z,817.89
2022-11-07T10:36:51.838Z,817.87
2022-11-07T10:37:51.848Z,817.88
2022-11-07T10:38:51.851Z,817.88
2022-11-07T10:39:51.864Z,817.89
2022-11-07T10:40:51.875Z,817.90
2022-11-07T10:41:51.891Z,817.88
2022-11-07T10:42:51.902Z,817.92
2022-11-07T10:43:51.922Z,817.93
2022-11-07T10:44:51.930Z,817.90
2022-11-07T10:45:51.950Z,817.89
2022-11-07T10:46:54.543Z,817.86
2022-11-07T10:47:51.974Z,817.91
2022-11-07T10:48:51.984Z,817.84
2022-11-07T10:49:52.001Z,817.83
2022-11-07T10:50:52.023Z,817.88
2022-11-07T10:51:52.060Z,817.83
2022-11-07T10:52:52.057Z,817.89
2022-11-07T10:53:52.058Z,817.84
2022-11-07T10:54:52.069Z,817.78
2022-11-07T10:55:52.083Z,817.83
2022-11-07T10:56:52.213Z,817.86
2022-11-07T10:57:52.109Z,817.84
2022-11-07T10:58:52.121Z,817.85
2022-11-07T10:59:52.137Z,817.82
2022-11-07T11:00:52.196Z,817.77
2022-11-07T11:01:52.229Z,817.76
2022-11-07T11:02:52.182Z,817.73
2022-11-07T11:03:52.190Z,817.75
2022-11-07T11:04:52.202Z,817.76
2022-11-07T11:05:52.233Z,817.76
2022-11-07T11:06:52.229Z,817.77
2022-11-07T11:07:52.246Z,817.84
2022-11-07T11:08:52.293Z,817.80
2022-11-07T11:09:52.274Z,817.79
2022-11-07T11:10:52.286Z,817.81
2022-11-07T11:11:52.299Z,817.82
2022-11-07T11:12:52.330Z,817.82
2022-11-07T11:13:52.326Z,817.79
2022-11-07T11:14:52.338Z,817.80
2022-11-07T11:15:52.355Z,817.81
2022-11-07T11:16:52.404Z,817.80
2022-11-07T11:17:52.383Z,817.81
2022-11-07T11:18:52.399Z,817.79
2022-11-07T11:19:52.409Z,817.80
2022-11-07T11:20:52.421Z,817.79
2022-11-07T11:21:52.439Z,817.79
2022-11-07T11:22:52.447Z,817.73
2022-11-07T11:23:52.466Z,817.77
2022-11-07T11:24:52.494Z,817.72
2022-11-07T11:25:52.494Z,817.74
2022-11-07T11:26:52.507Z,817.72
2022-11-07T11:27:52.525Z,817.68
2022-11-07T11:28:52.532Z,817.73
2022-11-07T11:29:52.551Z,817.72
2022-11-07T11:30:52.563Z,817.68
2022-11-07T11:31:52.578Z,817.66
2022-11-07T11:32:52.591Z,817.64
2022-11-07T11:33:52.619Z,817.66
2022-11-07T11:34:52.620Z,817.69
2022-11-07T11:35:52.637Z,817.65
2022-11-07T11:36:52.647Z,817.73
2022-11-07T11:37:52.662Z,817.65
2022-11-07T11:38:52.681Z,817.64
2022-11-07T11:39:52.692Z,817.63
2022-11-07T11:40:59.257Z,817.66
2022-11-07T11:41:52.722Z,817.63
2022-11-07T11:42:52.751Z,817.65
2022-11-07T11:43:52.762Z,817.61
2022-11-07T11:44:52.762Z,817.60
2022-11-07T11:45:52.778Z,817.56
2022-11-07T11:46:52.792Z,817.58
2022-11-07T11:47:52.809Z,817.56
2022-11-07T11:48:52.831Z,817.54
2022-11-07T11:49:52.835Z,817.58
2022-11-07T11:50:52.866Z,817.59
2022-11-07T11:51:52.878Z,817.56
2022-11-07T11:52:52.889Z,817.57
2022-11-07T11:53:52.897Z,817.54
2022-11-07T11:54:52.909Z,817.55
2022-11-07T11:55:52.934Z,817.53
2022-11-07T11:56:52.966Z,817.58
2022-11-07T11:57:52.970Z,817.57
2022-11-07T11:58:52.966Z,817.59
2022-11-07T11:59:52.982Z,817.57
2022-11-07T12:00:52.998Z,817.58
2022-11-07T12:01:53.188Z,817.57
2022-11-07T12:02:53.036Z,817.59
2022-11-07T12:03:53.042Z,817.62
2022-11-07T12:04:53.061Z,817.62
2022-11-07T12:05:53.070Z,817.61
2022-11-07T12:06:53.091Z,817.58
2022-11-07T12:07:53.103Z,817.55
2022-11-07T12:08:53.122Z,817.55
2022-11-07T12:09:53.134Z,817.61
2022-11-07T12:10:53.155Z,817.57
2022-11-07T12:11:53.165Z,817.63
2022-11-07T12:12:53.231Z,817.61
2022-11-07T12:13:53.193Z,817.61
2022-11-07T12:14:57.691Z,817.59
2022-11-07T12:15:53.243Z,817.56
2022-11-07T12:16:53.243Z,817.61
2022-11-07T12:17:53.254Z,817.59
2022-11-07T12:18:53.277Z,817.55
2022-11-07T12:19:53.287Z,817.53
2022-11-07T12:20:53.306Z,817.55
2022-11-07T12:21:53.320Z,817.55
2022-11-07T12:22:53.336Z,817.53
2022-11-07T12:23:53.374Z,817.52
2022-11-07T12:24:53.367Z,817.50
2022-11-07T12:25:53.381Z,817.52
2022-11-07T12:26:56.382Z,817.54
2022-11-07T12:27:53.417Z,817.55
2022-11-07T12:28:53.446Z,817.55